sensor_id;sensor_type;location;lat;lon;timestamp;pressure;altitude;pressure_sealevel;temperature;humidity
22025;BME280;11176;51.448;6.650;2023-01-28T00:00:56;45706.00;;;-141.29;85.73
22025;BME280;11176;51.448;6.650;2023-01-28T00:03:22;45698.00;;;-141.29;85.76
22025;BME280;11176;51.448;6.650;2023-01-28T00:05:49;45702.00;;;-141.29;84.86
22025;BME280;11176;51.448;6.650;2023-01-28T00:08:16;45714.00;;;-141.29;84.49
22025;BME280;11176;51.448;6.650;2023-01-28T00:10:42;45690.00;;;-141.29;84.53
22025;BME280;11176;51.448;6.650;2023-01-28T00:13:11;45706.00;;;-141.29;84.54
22025;BME280;11176;51.448;6.650;2023-01-28T00:15:40;45704.00;;;-141.29;84.61
22025;BME280;11176;51.448;6.650;2023-01-28T00:18:07;45696.00;;;-141.29;84.97
22025;BME280;11176;51.448;6.650;2023-01-28T00:20:33;45706.00;;;-141.29;84.12
22025;BME280;11176;51.448;6.650;2023-01-28T00:23:00;45737.97;;;-141.29;83.65
22025;BME280;11176;51.448;6.650;2023-01-28T00:25:27;45704.00;;;-141.29;82.72
22025;BME280;11176;51.448;6.650;2023-01-28T00:27:53;45714.00;;;-141.29;82.72
22025;BME280;11176;51.448;6.650;2023-01-28T00:30:20;45718.00;;;-141.29;82.74
22025;BME280;11176;51.448;6.650;2023-01-28T00:32:47;45708.00;;;-141.29;83.34
22025;BME280;11176;51.448;6.650;2023-01-28T00:35:13;45729.97;;;-141.29;81.92
22025;BME280;11176;51.448;6.650;2023-01-28T00:37:41;45725.97;;;-141.29;81.19
22025;BME280;11176;51.448;6.650;2023-01-28T00:40:08;45722.00;;;-141.29;81.79
22025;BME280;11176;51.448;6.650;2023-01-28T00:42:35;45714.00;;;-141.29;82.18
22025;BME280;11176;51.448;6.650;2023-01-28T00:45:03;45727.97;;;-141.29;81.95
22025;BME280;11176;51.448;6.650;2023-01-28T00:47:29;45698.00;;;-141.29;80.78
22025;BME280;11176;51.448;6.650;2023-01-28T00:49:55;45706.00;;;-141.29;81.00
22025;BME280;11176;51.448;6.650;2023-01-28T00:52:22;45712.00;;;-141.29;82.06
22025;BME280;11176;51.448;6.650;2023-01-28T00:54:48;45729.97;;;-141.29;82.55
22025;BME280;11176;51.448;6.650;2023-01-28T00:57:15;45731.97;;;-141.29;83.07
22025;BME280;11176;51.448;6.650;2023-01-28T00:59:41;45714.00;;;-141.29;83.22
22025;BME280;11176;51.448;6.650;2023-01-28T01:02:08;45710.00;;;-141.29;83.76
22025;BME280;11176;51.448;6.650;2023-01-28T01:04:39;45682.00;;;-141.29;84.28
22025;BME280;11176;51.448;6.650;2023-01-28T01:07:06;45718.00;;;-141.29;84.80
22025;BME280;11176;51.448;6.650;2023-01-28T01:09:32;45698.00;;;-141.29;84.65
22025;BME280;11176;51.448;6.650;2023-01-28T01:11:59;45725.97;;;-141.29;85.22
22025;BME280;11176;51.448;6.650;2023-01-28T01:14:25;45714.00;;;-141.29;84.53
22025;BME280;11176;51.448;6.650;2023-01-28T01:16:52;45716.00;;;-141.29;84.02
22025;BME280;11176;51.448;6.650;2023-01-28T01:19:18;45714.00;;;-141.29;84.36
22025;BME280;11176;51.448;6.650;2023-01-28T01:21:45;45704.00;;;-141.29;84.94
22025;BME280;11176;51.448;6.650;2023-01-28T01:24:15;45718.00;;;-141.29;83.82
22025;BME280;11176;51.448;6.650;2023-01-28T01:26:42;45714.00;;;-141.29;83.67
22025;BME280;11176;51.448;6.650;2023-01-28T01:29:08;45725.97;;;-141.29;82.65
22025;BME280;11176;51.448;6.650;2023-01-28T01:31:35;45729.97;;;-141.29;82.62
22025;BME280;11176;51.448;6.650;2023-01-28T01:34:01;45727.97;;;-141.29;82.61
22025;BME280;11176;51.448;6.650;2023-01-28T01:36:28;45700.00;;;-141.29;82.35
22025;BME280;11176;51.448;6.650;2023-01-28T01:38:55;45739.97;;;-141.29;81.85
22025;BME280;11176;51.448;6.650;2023-01-28T01:41:30;45735.97;;;-141.29;82.11
22025;BME280;11176;51.448;6.650;2023-01-28T01:43:59;45714.00;;;-141.29;81.88
22025;BME280;11176;51.448;6.650;2023-01-28T01:46:43;45712.00;;;-141.29;82.00
22025;BME280;11176;51.448;6.650;2023-01-28T01:49:21;45718.00;;;-141.29;82.24
22025;BME280;11176;51.448;6.650;2023-01-28T01:51:52;45702.00;;;-141.29;82.37
22025;BME280;11176;51.448;6.650;2023-01-28T01:54:22;45733.97;;;-141.29;81.80
22025;BME280;11176;51.448;6.650;2023-01-28T01:56:52;45737.97;;;-141.29;81.80
22025;BME280;11176;51.448;6.650;2023-01-28T01:59:22;45714.00;;;-141.29;81.75
22025;BME280;11176;51.448;6.650;2023-01-28T02:01:50;45720.00;;;-141.29;81.99
22025;BME280;11176;51.448;6.650;2023-01-28T02:04:30;45727.97;;;-141.29;81.59
22025;BME280;11176;51.448;6.650;2023-01-28T02:06:59;45712.00;;;-141.29;81.58
22025;BME280;11176;51.448;6.650;2023-01-28T02:09:32;45735.97;;;-141.29;80.73
22025;BME280;11176;51.448;6.650;2023-01-28T02:12:07;45712.00;;;-141.29;80.76
22025;BME280;11176;51.448;6.650;2023-01-28T02:14:40;45718.00;;;-141.29;80.59
22025;BME280;11176;51.448;6.650;2023-01-28T02:17:07;45722.00;;;-141.29;80.24
22025;BME280;11176;51.448;6.650;2023-01-28T02:19:55;45739.97;;;-141.29;80.25
22025;BME280;11176;51.448;6.650;2023-01-28T02:22:39;45694.00;;;-141.29;80.87
22025;BME280;11176;51.448;6.650;2023-01-28T02:25:33;45718.00;;;-141.29;79.93
22025;BME280;11176;51.448;6.650;2023-01-28T02:30:47;45718.00;;;-141.29;80.10
22025;BME280;11176;51.448;6.650;2023-01-28T02:33:25;45733.97;;;-141.29;81.16
22025;BME280;11176;51.448;6.650;2023-01-28T02:35:54;45731.97;;;-141.29;80.06
22025;BME280;11176;51.448;6.650;2023-01-28T02:38:35;45710.00;;;-141.29;79.90
22025;BME280;11176;51.448;6.650;2023-01-28T02:41:08;45725.97;;;-141.29;80.85
22025;BME280;11176;51.448;6.650;2023-01-28T02:43:42;45722.00;;;-141.29;80.85
22025;BME280;11176;51.448;6.650;2023-01-28T02:48:58;45708.00;;;-141.29;79.98
22025;BME280;11176;51.448;6.650;2023-01-28T02:51:34;45729.97;;;-141.29;80.28
22025;BME280;11176;51.448;6.650;2023-01-28T02:54:11;45729.97;;;-141.29;80.34
22025;BME280;11176;51.448;6.650;2023-01-28T02:56:59;45735.97;;;-141.29;80.61
22025;BME280;11176;51.448;6.650;2023-01-28T03:05:26;45751.97;;;-141.29;78.10
22025;BME280;11176;51.448;6.650;2023-01-28T03:07:55;45725.97;;;-141.29;77.13
22025;BME280;11176;51.448;6.650;2023-01-28T03:10:25;45722.00;;;-141.29;77.20
22025;BME280;11176;51.448;6.650;2023-01-28T03:12:54;45735.97;;;-141.29;77.80
22025;BME280;11176;51.448;6.650;2023-01-28T03:15:43;45739.97;;;-141.29;78.92
22025;BME280;11176;51.448;6.650;2023-01-28T03:18:48;45735.97;;;-141.29;79.75
22025;BME280;11176;51.448;6.650;2023-01-28T03:21:40;45725.97;;;-141.29;80.54
22025;BME280;11176;51.448;6.650;2023-01-28T03:24:34;45722.00;;;-141.29;81.38
22025;BME280;11176;51.448;6.650;2023-01-28T03:27:30;45743.97;;;-141.29;80.96
22025;BME280;11176;51.448;6.650;2023-01-28T03:30:26;45737.97;;;-141.29;82.13
22025;BME280;11176;51.448;6.650;2023-01-28T03:33:25;45725.97;;;-141.29;82.33
22025;BME280;11176;51.448;6.650;2023-01-28T03:36:11;45739.97;;;-141.29;81.84
22025;BME280;11176;51.448;6.650;2023-01-28T03:38:55;45747.97;;;-141.29;80.12
22025;BME280;11176;51.448;6.650;2023-01-28T03:41:24;45741.97;;;-141.29;79.47
22025;BME280;11176;51.448;6.650;2023-01-28T03:43:53;45725.97;;;-141.29;78.82
22025;BME280;11176;51.448;6.650;2023-01-28T03:46:21;45745.97;;;-141.29;79.35
22025;BME280;11176;51.448;6.650;2023-01-28T03:48:48;45725.97;;;-141.29;79.35
22025;BME280;11176;51.448;6.650;2023-01-28T03:51:14;45725.97;;;-141.29;78.76
22025;BME280;11176;51.448;6.650;2023-01-28T03:53:41;45725.97;;;-141.29;77.47
22025;BME280;11176;51.448;6.650;2023-01-28T03:56:09;45716.00;;;-141.29;77.16
22025;BME280;11176;51.448;6.650;2023-01-28T03:58:43;45729.97;;;-141.29;77.09
22025;BME280;11176;51.448;6.650;2023-01-28T04:01:22;45745.97;;;-141.29;77.45
22025;BME280;11176;51.448;6.650;2023-01-28T04:03:49;45737.97;;;-141.29;77.24
22025;BME280;11176;51.448;6.650;2023-01-28T04:06:26;45725.97;;;-141.29;77.22
22025;BME280;11176;51.448;6.650;2023-01-28T04:09:12;45733.97;;;-141.29;77.34
22025;BME280;11176;51.448;6.650;2023-01-28T04:11:48;45729.97;;;-141.29;76.76
22025;BME280;11176;51.448;6.650;2023-01-28T04:14:22;45722.00;;;-141.29;76.52
22025;BME280;11176;51.448;6.650;2023-01-28T04:16:52;45727.97;;;-141.29;75.58
22025;BME280;11176;51.448;6.650;2023-01-28T04:19:24;45757.97;;;-141.29;75.76
22025;BME280;11176;51.448;6.650;2023-01-28T04:21:53;45749.97;;;-141.29;75.21
22025;BME280;11176;51.448;6.650;2023-01-28T04:24:21;45749.97;;;-141.29;74.88
22025;BME280;11176;51.448;6.650;2023-01-28T04:26:48;45755.97;;;-141.29;75.36
22025;BME280;11176;51.448;6.650;2023-01-28T04:29:15;45725.97;;;-141.29;75.82
22025;BME280;11176;51.448;6.650;2023-01-28T04:31:42;45714.00;;;-141.29;76.28
22025;BME280;11176;51.448;6.650;2023-01-28T04:34:33;45745.97;;;-141.29;75.32
22025;BME280;11176;51.448;6.650;2023-01-28T04:37:20;45722.00;;;-141.29;76.54
22025;BME280;11176;51.448;6.650;2023-01-28T04:40:06;45757.97;;;-141.29;76.05
22025;BME280;11176;51.448;6.650;2023-01-28T04:42:53;45747.97;;;-141.29;75.92
22025;BME280;11176;51.448;6.650;2023-01-28T04:45:29;45737.97;;;-141.29;76.10
22025;BME280;11176;51.448;6.650;2023-01-28T04:48:24;45706.00;;;-141.29;76.29
22025;BME280;11176;51.448;6.650;2023-01-28T04:51:05;45735.97;;;-141.29;76.05
22025;BME280;11176;51.448;6.650;2023-01-28T04:53:34;45712.00;;;-141.29;76.54
22025;BME280;11176;51.448;6.650;2023-01-28T04:56:21;45718.00;;;-141.29;76.27
22025;BME280;11176;51.448;6.650;2023-01-28T04:58:47;45745.97;;;-141.29;76.12
22025;BME280;11176;51.448;6.650;2023-01-28T05:01:15;45747.97;;;-141.29;76.01
22025;BME280;11176;51.448;6.650;2023-01-28T05:03:41;45729.97;;;-141.29;77.11
22025;BME280;11176;51.448;6.650;2023-01-28T05:06:13;45741.97;;;-141.29;77.29
22025;BME280;11176;51.448;6.650;2023-01-28T05:08:42;45741.97;;;-141.29;76.08
22025;BME280;11176;51.448;6.650;2023-01-28T05:11:08;45729.97;;;-141.29;76.28
22025;BME280;11176;51.448;6.650;2023-01-28T05:13:35;45729.97;;;-141.29;76.02
22025;BME280;11176;51.448;6.650;2023-01-28T05:16:02;45729.97;;;-141.29;76.52
22025;BME280;11176;51.448;6.650;2023-01-28T05:18:29;45757.97;;;-141.29;76.68
22025;BME280;11176;51.448;6.650;2023-01-28T05:21:08;45739.97;;;-141.29;76.72
22025;BME280;11176;51.448;6.650;2023-01-28T05:23:37;45745.97;;;-141.29;76.58
22025;BME280;11176;51.448;6.650;2023-01-28T05:26:04;45741.97;;;-141.29;76.38
22025;BME280;11176;51.448;6.650;2023-01-28T05:28:32;45714.00;;;-141.29;76.46
22025;BME280;11176;51.448;6.650;2023-01-28T05:31:05;45745.97;;;-141.29;76.03
22025;BME280;11176;51.448;6.650;2023-01-28T05:33:32;45737.97;;;-141.29;76.14
22025;BME280;11176;51.448;6.650;2023-01-28T05:36:00;45741.97;;;-141.29;76.43
22025;BME280;11176;51.448;6.650;2023-01-28T05:38:27;45733.97;;;-141.29;74.89
22025;BME280;11176;51.448;6.650;2023-01-28T05:40:53;45741.97;;;-141.29;75.49
22025;BME280;11176;51.448;6.650;2023-01-28T05:43:20;45725.97;;;-141.29;74.53
22025;BME280;11176;51.448;6.650;2023-01-28T05:46:07;45724.00;;;-141.29;75.01
22025;BME280;11176;51.448;6.650;2023-01-28T05:48:53;45731.97;;;-141.29;75.38
22025;BME280;11176;51.448;6.650;2023-01-28T05:51:43;45745.97;;;-141.29;74.87
22025;BME280;11176;51.448;6.650;2023-01-28T05:54:13;45714.00;;;-141.29;75.00
22025;BME280;11176;51.448;6.650;2023-01-28T05:56:39;45749.97;;;-141.29;75.54
22025;BME280;11176;51.448;6.650;2023-01-28T05:59:06;45741.97;;;-141.29;75.22
22025;BME280;11176;51.448;6.650;2023-01-28T06:01:34;45745.97;;;-141.29;76.06
22025;BME280;11176;51.448;6.650;2023-01-28T06:04:00;45761.97;;;-141.29;77.01
22025;BME280;11176;51.448;6.650;2023-01-28T06:06:29;45741.97;;;-141.29;76.19
22025;BME280;11176;51.448;6.650;2023-01-28T06:08:56;45733.97;;;-141.29;77.18
22025;BME280;11176;51.448;6.650;2023-01-28T06:11:28;45749.97;;;-141.29;77.07
22025;BME280;11176;51.448;6.650;2023-01-28T06:13:59;45725.97;;;-141.29;77.29
22025;BME280;11176;51.448;6.650;2023-01-28T06:16:50;45753.97;;;-141.29;75.62
22025;BME280;11176;51.448;6.650;2023-01-28T06:19:25;45733.97;;;-141.29;76.63
22025;BME280;11176;51.448;6.650;2023-01-28T06:21:51;45720.00;;;-141.29;76.57
22025;BME280;11176;51.448;6.650;2023-01-28T06:24:18;45725.97;;;-141.29;77.27
22025;BME280;11176;51.448;6.650;2023-01-28T06:26:45;45757.97;;;-141.29;78.50
22025;BME280;11176;51.448;6.650;2023-01-28T06:29:11;45725.97;;;-141.29;77.77
22025;BME280;11176;51.448;6.650;2023-01-28T06:31:38;45749.97;;;-141.29;76.56
22025;BME280;11176;51.448;6.650;2023-01-28T06:34:04;45745.97;;;-141.29;77.42
22025;BME280;11176;51.448;6.650;2023-01-28T06:36:31;45753.97;;;-141.29;76.94
22025;BME280;11176;51.448;6.650;2023-01-28T06:38:58;45753.97;;;-141.29;77.99
22025;BME280;11176;51.448;6.650;2023-01-28T06:41:25;45727.97;;;-141.29;78.96
22025;BME280;11176;51.448;6.650;2023-01-28T06:43:51;45739.97;;;-141.29;79.47
22025;BME280;11176;51.448;6.650;2023-01-28T06:46:18;45733.97;;;-141.29;78.95
22025;BME280;11176;51.448;6.650;2023-01-28T06:48:45;45733.97;;;-141.29;78.74
22025;BME280;11176;51.448;6.650;2023-01-28T06:51:11;45745.97;;;-141.29;78.97
22025;BME280;11176;51.448;6.650;2023-01-28T06:53:38;45725.97;;;-141.29;77.92
22025;BME280;11176;51.448;6.650;2023-01-28T06:56:04;45739.97;;;-141.29;76.39
22025;BME280;11176;51.448;6.650;2023-01-28T06:58:31;45745.97;;;-141.29;75.70
22025;BME280;11176;51.448;6.650;2023-01-28T07:00:57;45722.00;;;-141.29;77.61
22025;BME280;11176;51.448;6.650;2023-01-28T07:03:24;45747.97;;;-141.29;77.30
22025;BME280;11176;51.448;6.650;2023-01-28T07:05:51;45733.97;;;-141.29;77.29
22025;BME280;11176;51.448;6.650;2023-01-28T07:08:17;45731.97;;;-141.29;77.24
22025;BME280;11176;51.448;6.650;2023-01-28T07:10:44;45741.97;;;-141.29;78.19
22025;BME280;11176;51.448;6.650;2023-01-28T07:13:11;45741.97;;;-141.29;76.85
22025;BME280;11176;51.448;6.650;2023-01-28T07:15:37;45729.97;;;-141.29;76.19
22025;BME280;11176;51.448;6.650;2023-01-28T07:18:04;45751.97;;;-141.29;76.83
22025;BME280;11176;51.448;6.650;2023-01-28T07:20:30;45749.97;;;-141.29;76.81
22025;BME280;11176;51.448;6.650;2023-01-28T07:22:57;45751.97;;;-141.29;76.63
22025;BME280;11176;51.448;6.650;2023-01-28T07:25:23;45733.97;;;-141.29;76.76
22025;BME280;11176;51.448;6.650;2023-01-28T07:27:51;45729.97;;;-141.29;78.03
22025;BME280;11176;51.448;6.650;2023-01-28T07:30:19;45743.97;;;-141.29;78.44
22025;BME280;11176;51.448;6.650;2023-01-28T07:32:51;45749.97;;;-141.29;79.39
22025;BME280;11176;51.448;6.650;2023-01-28T07:35:17;45729.97;;;-141.29;78.40
22025;BME280;11176;51.448;6.650;2023-01-28T07:37:52;45735.97;;;-141.29;77.56
22025;BME280;11176;51.448;6.650;2023-01-28T07:40:20;45725.97;;;-141.29;78.13
22025;BME280;11176;51.448;6.650;2023-01-28T07:42:47;45747.97;;;-141.29;77.53
22025;BME280;11176;51.448;6.650;2023-01-28T07:45:14;45749.97;;;-141.29;77.43
22025;BME280;11176;51.448;6.650;2023-01-28T07:47:41;45753.97;;;-141.29;77.47
22025;BME280;11176;51.448;6.650;2023-01-28T07:50:09;45749.97;;;-141.29;77.50
22025;BME280;11176;51.448;6.650;2023-01-28T07:52:36;45739.97;;;-141.29;77.81
22025;BME280;11176;51.448;6.650;2023-01-28T07:55:10;45751.97;;;-141.29;78.17
22025;BME280;11176;51.448;6.650;2023-01-28T07:57:48;45729.97;;;-141.29;78.50
22025;BME280;11176;51.448;6.650;2023-01-28T08:00:15;45753.97;;;-141.29;76.88
22025;BME280;11176;51.448;6.650;2023-01-28T08:02:42;45725.97;;;-141.29;77.00
22025;BME280;11176;51.448;6.650;2023-01-28T08:05:17;45745.97;;;-141.29;76.81
22025;BME280;11176;51.448;6.650;2023-01-28T08:07:45;45747.97;;;-141.29;75.82
22025;BME280;11176;51.448;6.650;2023-01-28T08:10:11;45729.97;;;-141.29;75.62
22025;BME280;11176;51.448;6.650;2023-01-28T08:12:39;45733.97;;;-141.29;77.05
22025;BME280;11176;51.448;6.650;2023-01-28T08:15:06;45731.97;;;-141.29;76.53
22025;BME280;11176;51.448;6.650;2023-01-28T08:17:33;45720.00;;;-141.29;76.26
22025;BME280;11176;51.448;6.650;2023-01-28T08:19:59;45725.97;;;-141.29;75.96
22025;BME280;11176;51.448;6.650;2023-01-28T08:22:26;45729.97;;;-141.29;76.82
22025;BME280;11176;51.448;6.650;2023-01-28T08:24:53;45741.97;;;-141.29;76.37
22025;BME280;11176;51.448;6.650;2023-01-28T08:27:19;45775.94;;;-141.29;76.22
22025;BME280;11176;51.448;6.650;2023-01-28T08:29:46;45737.97;;;-141.29;74.77
22025;BME280;11176;51.448;6.650;2023-01-28T08:32:12;45729.97;;;-141.29;75.28
22025;BME280;11176;51.448;6.650;2023-01-28T08:34:38;45753.97;;;-141.29;74.57
22025;BME280;11176;51.448;6.650;2023-01-28T08:37:05;45757.97;;;-141.29;73.90
22025;BME280;11176;51.448;6.650;2023-01-28T08:39:31;45753.97;;;-141.29;74.97
22025;BME280;11176;51.448;6.650;2023-01-28T08:41:58;45729.97;;;-141.29;74.93
22025;BME280;11176;51.448;6.650;2023-01-28T08:44:24;45733.97;;;-141.29;74.86
22025;BME280;11176;51.448;6.650;2023-01-28T08:46:50;45757.97;;;-141.29;73.90
22025;BME280;11176;51.448;6.650;2023-01-28T08:49:17;45751.97;;;-141.29;73.85
22025;BME280;11176;51.448;6.650;2023-01-28T08:51:43;45737.97;;;-141.29;73.95
22025;BME280;11176;51.448;6.650;2023-01-28T08:54:10;45731.97;;;-141.29;74.18
22025;BME280;11176;51.448;6.650;2023-01-28T08:56:36;45759.97;;;-141.29;74.09
22025;BME280;11176;51.448;6.650;2023-01-28T08:59:04;45718.00;;;-141.29;73.48
22025;BME280;11176;51.448;6.650;2023-01-28T09:01:30;45739.97;;;-141.29;74.35
22025;BME280;11176;51.448;6.650;2023-01-28T09:03:57;45735.97;;;-141.29;73.62
22025;BME280;11176;51.448;6.650;2023-01-28T09:06:24;45745.97;;;-141.29;73.72
22025;BME280;11176;51.448;6.650;2023-01-28T09:08:51;45722.00;;;-141.29;73.21
22025;BME280;11176;51.448;6.650;2023-01-28T09:11:17;45745.97;;;-141.29;73.10
22025;BME280;11176;51.448;6.650;2023-01-28T09:13:44;45749.97;;;-141.29;73.70
22025;BME280;11176;51.448;6.650;2023-01-28T09:16:10;45735.97;;;-141.29;73.74
22025;BME280;11176;51.448;6.650;2023-01-28T09:18:37;45741.97;;;-141.29;74.49
22025;BME280;11176;51.448;6.650;2023-01-28T09:21:05;45733.97;;;-141.29;74.00
22025;BME280;11176;51.448;6.650;2023-01-28T09:23:35;45741.97;;;-141.29;73.30
22025;BME280;11176;51.448;6.650;2023-01-28T09:26:02;45733.97;;;-141.29;73.05
22025;BME280;11176;51.448;6.650;2023-01-28T09:28:30;45722.00;;;-141.29;73.13
22025;BME280;11176;51.448;6.650;2023-01-28T09:31:07;45729.97;;;-141.29;72.33
22025;BME280;11176;51.448;6.650;2023-01-28T09:33:35;45737.97;;;-141.29;71.87
22025;BME280;11176;51.448;6.650;2023-01-28T09:36:03;45731.97;;;-141.29;73.78
22025;BME280;11176;51.448;6.650;2023-01-28T09:38:31;45751.97;;;-141.29;73.88
22025;BME280;11176;51.448;6.650;2023-01-28T09:41:01;45729.97;;;-141.29;74.98
22025;BME280;11176;51.448;6.650;2023-01-28T09:43:48;45733.97;;;-141.29;74.81
22025;BME280;11176;51.448;6.650;2023-01-28T09:46:19;45729.97;;;-141.29;73.92
22025;BME280;11176;51.448;6.650;2023-01-28T09:48:49;45731.97;;;-141.29;73.48
22025;BME280;11176;51.448;6.650;2023-01-28T09:51:37;45731.97;;;-141.29;73.80
22025;BME280;11176;51.448;6.650;2023-01-28T09:55:11;45735.97;;;-141.29;73.81
22025;BME280;11176;51.448;6.650;2023-01-28T09:57:21;45733.97;;;-141.29;72.86
22025;BME280;11176;51.448;6.650;2023-01-28T09:59:49;45753.97;;;-141.29;73.48
22025;BME280;11176;51.448;6.650;2023-01-28T10:05:03;45704.00;;;-141.29;72.16
22025;BME280;11176;51.448;6.650;2023-01-28T10:07:37;45741.97;;;-141.29;72.19
22025;BME280;11176;51.448;6.650;2023-01-28T10:10:26;45716.00;;;-141.29;73.07
22025;BME280;11176;51.448;6.650;2023-01-28T10:18:10;45741.97;;;-141.29;72.48
22025;BME280;11176;51.448;6.650;2023-01-28T10:20:49;45727.97;;;-141.29;73.14
22025;BME280;11176;51.448;6.650;2023-01-28T10:23:24;45729.97;;;-141.29;73.29
22025;BME280;11176;51.448;6.650;2023-01-28T10:25:55;45725.97;;;-141.29;73.10
22025;BME280;11176;51.448;6.650;2023-01-28T10:28:25;45745.97;;;-141.29;72.09
22025;BME280;11176;51.448;6.650;2023-01-28T10:30:53;45737.97;;;-141.29;71.75
22025;BME280;11176;51.448;6.650;2023-01-28T10:35:56;45733.97;;;-141.29;71.21
22025;BME280;11176;51.448;6.650;2023-01-28T10:38:24;45749.97;;;-141.29;71.02
22025;BME280;11176;51.448;6.650;2023-01-28T10:40:55;45751.97;;;-141.29;70.66
22025;BME280;11176;51.448;6.650;2023-01-28T10:43:24;45733.97;;;-141.29;70.25
22025;BME280;11176;51.448;6.650;2023-01-28T10:48:54;45737.97;;;-141.29;69.53
22025;BME280;11176;51.448;6.650;2023-01-28T10:51:33;45722.00;;;-141.29;70.04
22025;BME280;11176;51.448;6.650;2023-01-28T10:54:00;45749.97;;;-141.29;69.79
22025;BME280;11176;51.448;6.650;2023-01-28T10:56:31;45710.00;;;-141.29;70.52
22025;BME280;11176;51.448;6.650;2023-01-28T10:59:03;45727.97;;;-141.29;71.45
22025;BME280;11176;51.448;6.650;2023-01-28T11:01:45;45733.97;;;-141.29;70.26
22025;BME280;11176;51.448;6.650;2023-01-28T11:04:18;45712.00;;;-141.29;70.43
22025;BME280;11176;51.448;6.650;2023-01-28T11:09:24;45743.97;;;-141.29;70.43
22025;BME280;11176;51.448;6.650;2023-01-28T11:11:50;45714.00;;;-141.29;70.54
22025;BME280;11176;51.448;6.650;2023-01-28T11:14:22;45731.97;;;-141.29;70.61
22025;BME280;11176;51.448;6.650;2023-01-28T11:16:50;45731.97;;;-141.29;70.35
22025;BME280;11176;51.448;6.650;2023-01-28T11:19:20;45729.97;;;-141.29;69.75
22025;BME280;11176;51.448;6.650;2023-01-28T11:21:51;45741.97;;;-141.29;70.15
22025;BME280;11176;51.448;6.650;2023-01-28T11:24:23;45725.97;;;-141.29;70.32
22025;BME280;11176;51.448;6.650;2023-01-28T11:26:53;45737.97;;;-141.29;71.72
22025;BME280;11176;51.448;6.650;2023-01-28T11:29:21;45727.97;;;-141.29;70.25
22025;BME280;11176;51.448;6.650;2023-01-28T11:31:50;45718.00;;;-141.29;71.06
22025;BME280;11176;51.448;6.650;2023-01-28T11:34:18;45725.97;;;-141.29;71.45
22025;BME280;11176;51.448;6.650;2023-01-28T11:37:02;45737.97;;;-141.29;71.43
22025;BME280;11176;51.448;6.650;2023-01-28T11:39:29;45729.97;;;-141.29;71.46
22025;BME280;11176;51.448;6.650;2023-01-28T11:44:38;45727.97;;;-141.29;69.91
22025;BME280;11176;51.448;6.650;2023-01-28T11:47:41;45747.97;;;-141.29;70.21
22025;BME280;11176;51.448;6.650;2023-01-28T11:50:29;45733.97;;;-141.29;68.93
22025;BME280;11176;51.448;6.650;2023-01-28T11:53:21;45729.97;;;-141.29;69.82
22025;BME280;11176;51.448;6.650;2023-01-28T11:56:44;45735.97;;;-141.29;70.48
22025;BME280;11176;51.448;6.650;2023-01-28T12:01:59;45706.00;;;-141.29;70.41
22025;BME280;11176;51.448;6.650;2023-01-28T12:07:32;45712.00;;;-141.29;70.89
22025;BME280;11176;51.448;6.650;2023-01-28T12:10:23;45714.00;;;-141.29;69.54
22025;BME280;11176;51.448;6.650;2023-01-28T12:16:15;45724.00;;;-141.29;69.67
22025;BME280;11176;51.448;6.650;2023-01-28T12:18:58;45725.97;;;-141.29;70.12
22025;BME280;11176;51.448;6.650;2023-01-28T12:27:46;45718.00;;;-141.29;68.95
22025;BME280;11176;51.448;6.650;2023-01-28T12:35:51;45725.97;;;-141.29;70.02
22025;BME280;11176;51.448;6.650;2023-01-28T12:38:47;45724.00;;;-141.29;70.25
22025;BME280;11176;51.448;6.650;2023-01-28T12:41:18;45718.00;;;-141.29;68.43
22025;BME280;11176;51.448;6.650;2023-01-28T12:46:40;45706.00;;;-141.29;68.25
22025;BME280;11176;51.448;6.650;2023-01-28T12:49:15;45702.00;;;-141.29;68.65
22025;BME280;11176;51.448;6.650;2023-01-28T12:52:03;45700.00;;;-141.29;69.32
22025;BME280;11176;51.448;6.650;2023-01-28T12:55:04;45698.00;;;-141.29;66.41
22025;BME280;11176;51.448;6.650;2023-01-28T12:57:33;45710.00;;;-141.29;68.03
22025;BME280;11176;51.448;6.650;2023-01-28T13:00:22;45680.03;;;-141.29;67.86
22025;BME280;11176;51.448;6.650;2023-01-28T13:02:56;45680.03;;;-141.29;64.68
22025;BME280;11176;51.448;6.650;2023-01-28T13:05:35;45680.03;;;-141.29;65.39
22025;BME280;11176;51.448;6.650;2023-01-28T13:08:10;45690.00;;;-141.29;64.03
22025;BME280;11176;51.448;6.650;2023-01-28T13:10:42;45674.03;;;-141.29;63.45
22025;BME280;11176;51.448;6.650;2023-01-28T13:13:32;45676.03;;;-141.29;66.36
22025;BME280;11176;51.448;6.650;2023-01-28T13:16:00;45696.00;;;-141.29;65.73
22025;BME280;11176;51.448;6.650;2023-01-28T13:18:53;45682.00;;;-141.29;65.17
22025;BME280;11176;51.448;6.650;2023-01-28T13:21:33;45686.00;;;-141.29;65.24
22025;BME280;11176;51.448;6.650;2023-01-28T13:29:28;45702.00;;;-141.29;65.57
22025;BME280;11176;51.448;6.650;2023-01-28T13:31:58;45678.03;;;-141.29;64.94
22025;BME280;11176;51.448;6.650;2023-01-28T13:34:37;45676.03;;;-141.29;63.83
22025;BME280;11176;51.448;6.650;2023-01-28T13:39:47;45688.00;;;-141.29;63.29
22025;BME280;11176;51.448;6.650;2023-01-28T13:44:48;45686.00;;;-141.29;63.92
22025;BME280;11176;51.448;6.650;2023-01-28T13:47:32;45686.00;;;-141.29;63.83
22025;BME280;11176;51.448;6.650;2023-01-28T13:50:02;45682.00;;;-141.29;63.56
22025;BME280;11176;51.448;6.650;2023-01-28T13:52:34;45670.03;;;-141.29;63.00
22025;BME280;11176;51.448;6.650;2023-01-28T13:55:17;45688.00;;;-141.29;60.61
22025;BME280;11176;51.448;6.650;2023-01-28T14:00:53;45682.00;;;-141.29;62.55
22025;BME280;11176;51.448;6.650;2023-01-28T14:15:03;45650.03;;;-141.29;61.96
22025;BME280;11176;51.448;6.650;2023-01-28T14:17:52;45674.03;;;-141.29;59.65
22025;BME280;11176;51.448;6.650;2023-01-28T14:20:21;45654.03;;;-141.29;60.33
22025;BME280;11176;51.448;6.650;2023-01-28T14:22:57;45650.03;;;-141.29;60.87
22025;BME280;11176;51.448;6.650;2023-01-28T14:25:29;45670.03;;;-141.29;57.94